• Join FlightAware (Why Join?)
  • Login
  • US Flag 
04:08PM EDT


 

Airport Tracker/Info


-or-


 

Live Flight TrackerFlight Track Log ✈ UCA4815 ✈ 11-Jul-2013 ✈ KEWR - KITH

Flight Track Log - Related Links

Times and Time Zones

All times are in EDT time to prevent confusion due to time zone crossing. See the UCA4815 flight status page for this flight to view local times or setup timezone preferences in your user account.

Time Position Orientation Groundspeed Altitude Reporting Facility
EDT Latitude Longitude Course Direction KTS MPH feet Rate Location/Type
10:00PM 40.9888 -74.5333 317° Northwest  Level Estimated
10:01PM 41.0310 -74.5857 317° Northwest  Level Estimated
10:02PM 41.0732 -74.6381 317° Northwest  Level Estimated
10:03PM 41.1154 -74.6906 317° Northwest  Level Estimated
10:04PM 41.1575 -74.7432 317° Northwest  Level Estimated
10:05PM 41.1997 -74.7958 317° Northwest  Level Estimated
10:06PM 41.2418 -74.8485 317° Northwest  Level Estimated
10:07PM 41.2839 -74.9013 317° Northwest  Level Estimated
10:08PM 41.3259 -74.9541 317° Northwest  Level Estimated
10:09PM 41.3680 -75.0070 317° Northwest  Level Estimated
10:10PM 41.4100 -75.0600 317° Northwest  Level Estimated
10:11PM 41.4520 -75.1130 317° Northwest  Level Estimated
10:12PM 41.4939 -75.1661 317° Northwest  Level Estimated
10:13PM 41.5359 -75.2193 317° Northwest  Level Estimated
10:14PM 41.5778 -75.2725 316° Northwest  Level Estimated
10:15PM 41.6197 -75.3258 316° Northwest  Level Estimated
10:16PM 41.6615 -75.3792 316° Northwest  Level Estimated
10:17PM 41.7034 -75.4327 316° Northwest  Level Estimated
10:18PM 41.7452 -75.4862 316° Northwest  Level Estimated
10:19PM 41.7870 -75.5398 316° Northwest  Level Estimated
10:20PM 41.8288 -75.5934 316° Northwest  Level Estimated
10:21PM 41.8705 -75.6472 316° Northwest  Level Estimated
10:22PM 41.9122 -75.7010 316° Northwest  Level Estimated
10:23PM 41.9539 -75.7548 316° Northwest  Level Estimated
10:24PM 41.9956 -75.8088 316° Northwest  Level Estimated
10:25PM 42.0372 -75.8628 316° Northwest  Level Estimated
10:26PM 42.0788 -75.9169 316° Northwest  Level Estimated
10:27PM 42.1204 -75.9710 316° Northwest  Level Estimated
10:28PM 42.1620 -76.0253 316° Northwest  Level Estimated
10:29PM 42.2035 -76.0796 316° Northwest  Level Estimated
10:30PM 42.2450 -76.1339 316° Northwest  Level Estimated
10:31PM 42.2865 -76.1884 316° Northwest  Level Estimated
10:32PM 42.3280 -76.2429 316° Northwest  Level Estimated
10:33PM 42.3694 -76.2975 316° Northwest  Level Estimated
10:34PM 42.4109 -76.3521 316° Northwest  Level Estimated
10:35PM 42.4522 -76.4069 316° Northwest  Level Estimated
10:36PM 42.4914 -76.4587 316° Northwest  Level Estimated
10:37PM 42.4914 -76.4587 304° West  Level Estimated
10:38PM 42.4914 -76.4587 304° West  Level Estimated
10:39PM 42.4914 -76.4587 304° West  Level Estimated
10:40PM 42.4914 -76.4587 304° West  Level Estimated